createdAt,value
2023-04-12T00:01:44.202Z,9.6
2023-04-12T00:03:48.102Z,9.6
2023-04-12T00:10:02.497Z,9.4
2023-04-12T00:12:26.305Z,9.3
2023-04-12T00:20:44.648Z,8.9
2023-04-12T00:22:48.481Z,8.8
2023-04-12T00:24:52.361Z,8.8
2023-04-12T00:26:56.241Z,8.7
2023-04-12T00:29:00.126Z,8.7
2023-04-12T00:31:03.994Z,8.7
2023-04-12T00:33:10.623Z,8.6
2023-04-12T00:35:15.973Z,8.6
2023-04-12T00:37:19.770Z,8.6
2023-04-12T00:39:23.628Z,8.6
2023-04-12T00:41:27.860Z,8.5
2023-04-12T00:43:31.370Z,8.4
2023-04-12T00:45:35.181Z,8.3
2023-04-12T00:47:41.911Z,8.3
2023-04-12T00:51:49.577Z,8.3
2023-04-12T00:53:53.420Z,8.3
2023-04-12T00:58:01.125Z,8.3
2023-04-12T01:00:04.951Z,8.3
2023-04-12T01:02:11.709Z,8.2
2023-04-12T01:04:15.633Z,8.2
2023-04-12T01:06:19.315Z,8.2
2023-04-12T01:07:22.621Z,8.2
2023-04-12T01:09:26.524Z,8.1
2023-04-12T01:15:40.808Z,8
2023-04-12T01:17:44.712Z,8
2023-04-12T01:19:48.495Z,8
2023-04-12T01:38:25.840Z,7.9
2023-04-12T01:42:33.565Z,7.8
2023-04-12T01:44:40.198Z,7.8
2023-04-12T01:54:59.509Z,7.8
2023-04-12T01:59:10.015Z,7.8
2023-04-12T02:01:13.937Z,7.8
2023-04-12T02:03:17.939Z,7.7
2023-04-12T02:04:21.025Z,7.8
2023-04-12T02:10:32.587Z,7.7
2023-04-12T02:12:39.229Z,7.7
2023-04-12T02:14:43.159Z,7.7
2023-04-12T02:16:47.085Z,7.8
2023-04-12T02:18:50.854Z,7.7
2023-04-12T02:20:54.651Z,7.7
2023-04-12T02:22:58.489Z,7.7
2023-04-12T02:25:02.330Z,7.7
2023-04-12T02:29:12.829Z,7.7
2023-04-12T02:31:16.734Z,7.7
2023-04-12T02:33:20.503Z,7.7
2023-04-12T02:35:24.339Z,7.6
2023-04-12T02:41:38.680Z,7.7
2023-04-12T02:43:42.491Z,7.7
2023-04-12T02:45:46.352Z,7.7
2023-04-12T02:47:50.172Z,7.7
2023-04-12T02:49:53.992Z,7.8
2023-04-12T03:01:20.034Z,7.8
2023-04-12T03:03:23.985Z,7.8
2023-04-12T03:05:27.682Z,7.9
2023-04-12T03:07:31.524Z,7.9
2023-04-12T03:09:38.169Z,7.9
2023-04-12T03:11:41.992Z,7.9
2023-04-12T03:15:49.746Z,7.9
2023-04-12T03:17:53.656Z,7.8
2023-04-12T03:19:57.390Z,7.8
2023-04-12T03:24:07.877Z,7.8
2023-04-12T03:26:11.691Z,7.8
2023-04-12T03:28:15.535Z,7.8
2023-04-12T03:30:19.361Z,7.8
2023-04-12T03:32:23.261Z,7.7
2023-04-12T03:34:27.058Z,7.7
2023-04-12T03:36:30.906Z,7.7
2023-04-12T03:38:37.546Z,7.6
2023-04-12T03:40:41.360Z,7.7
2023-04-12T03:44:49.045Z,7.6
2023-04-12T03:51:00.558Z,7.5
2023-04-12T03:59:44.491Z,7.4
2023-04-12T04:01:48.377Z,7.4
2023-04-12T04:03:52.286Z,7.4
2023-04-12T04:05:58.839Z,7.3
2023-04-12T04:08:02.846Z,7.3
2023-04-12T04:10:06.504Z,7.3
2023-04-12T04:12:10.320Z,7.3
2023-04-12T04:14:14.118Z,7.3
2023-04-12T04:16:18.077Z,7.3
2023-04-12T04:18:21.838Z,7.3
2023-04-12T04:22:32.324Z,7.3
2023-04-12T04:26:40.004Z,7.2
2023-04-12T04:28:43.849Z,7.2
2023-04-12T04:34:58.168Z,7.2
2023-04-12T04:41:09.689Z,7.2
2023-04-12T04:43:13.592Z,7.2
2023-04-12T04:45:17.431Z,7.2
2023-04-12T04:47:21.311Z,7.2
2023-04-12T04:49:27.951Z,7.2
2023-04-12T04:53:35.584Z,7.2
2023-04-12T04:54:38.905Z,7.2
2023-04-12T04:58:46.669Z,7.2
2023-04-12T05:00:50.459Z,7.2
2023-04-12T05:05:00.912Z,7.3
2023-04-12T05:07:04.817Z,7.2
2023-04-12T05:09:08.634Z,7.3
2023-04-12T05:11:12.465Z,7.2
2023-04-12T05:13:16.308Z,7.2
2023-04-12T05:15:20.151Z,7.2
2023-04-12T05:17:26.782Z,7.2
2023-04-12T05:19:30.588Z,7.2
2023-04-12T05:21:34.449Z,7.2
2023-04-12T05:23:38.267Z,7.2
2023-04-12T05:25:42.083Z,7.2
2023-04-12T05:27:45.967Z,7.2
2023-04-12T05:29:49.763Z,7.2
2023-04-12T05:31:56.401Z,7.3
2023-04-12T05:36:04.131Z,7.3
2023-04-12T05:38:07.921Z,7.3
2023-04-12T05:40:11.737Z,7.3
2023-04-12T05:42:15.594Z,7.3
2023-04-12T05:44:19.429Z,7.3
2023-04-12T05:51:41.347Z,7.3
2023-04-12T05:53:40.899Z,7.4
2023-04-12T05:57:48.577Z,7.3
2023-04-12T05:59:55.212Z,7.3
2023-04-12T06:01:59.120Z,7.3
2023-04-12T06:04:03.009Z,7.3
2023-04-12T06:06:06.702Z,7.3
2023-04-12T06:08:10.552Z,7.3
2023-04-12T06:10:14.375Z,7.4
2023-04-12T06:12:18.240Z,7.4
2023-04-12T06:14:24.850Z,7.4
2023-04-12T06:18:32.606Z,7.4
2023-04-12T06:20:36.386Z,7.4
2023-04-12T06:22:40.216Z,7.4
2023-04-12T06:24:44.040Z,7.4
2023-04-12T06:26:47.880Z,7.4
2023-04-12T06:30:58.427Z,7.5
2023-04-12T06:33:03.758Z,7.5
2023-04-12T06:35:07.489Z,7.5
2023-04-12T06:37:11.318Z,7.5
2023-04-12T06:39:15.158Z,7.5
2023-04-12T06:41:18.966Z,7.5
2023-04-12T06:43:25.637Z,7.5
2023-04-12T06:47:33.336Z,7.5
2023-04-12T06:48:36.638Z,7.5
2023-04-12T06:58:58.880Z,7.6
2023-04-12T07:01:02.501Z,7.6
2023-04-12T07:03:06.358Z,7.6
2023-04-12T07:05:10.173Z,7.7
2023-04-12T07:07:13.958Z,7.7
2023-04-12T07:09:17.856Z,7.7
2023-04-12T07:13:28.284Z,7.7
2023-04-12T07:15:32.095Z,7.6
2023-04-12T07:17:35.965Z,7.7
2023-04-12T07:21:43.641Z,7.7
2023-04-12T07:23:47.587Z,7.7
2023-04-12T07:25:54.196Z,7.8
2023-04-12T07:27:58.044Z,7.8
2023-04-12T07:30:01.931Z,7.8
2023-04-12T07:32:05.732Z,7.8
2023-04-12T07:34:09.751Z,7.9
2023-04-12T07:36:13.429Z,7.9
2023-04-12T07:38:17.220Z,7.9
2023-04-12T07:40:23.907Z,8
2023-04-12T07:44:31.588Z,8.1
2023-04-12T07:49:05.022Z,8.3
2023-04-12T07:51:08.859Z,8.4
2023-04-12T07:53:15.514Z,8.6
2023-04-12T07:57:23.218Z,8.6
2023-04-12T07:59:27.083Z,8.7
2023-04-12T08:01:30.956Z,8.7
2023-04-12T08:03:34.886Z,8.8
2023-04-12T08:05:38.671Z,8.7
2023-04-12T08:07:45.304Z,8.7
2023-04-12T08:09:49.222Z,8.8
2023-04-12T08:11:53.084Z,8.9
2023-04-12T08:13:57.119Z,8.7
2023-04-12T08:16:00.854Z,8.7
2023-04-12T08:18:04.718Z,8.7
2023-04-12T08:20:08.488Z,8.7
2023-04-12T08:22:15.206Z,8.8
2023-04-12T08:24:19.035Z,8.8
2023-04-12T08:26:22.873Z,8.9
2023-04-12T08:30:30.600Z,9.4
2023-04-12T08:34:38.309Z,9.5
2023-04-12T08:38:48.859Z,9.7
2023-04-12T08:40:52.728Z,9.8
2023-04-12T08:41:56.079Z,10
2023-04-12T08:46:03.830Z,10
2023-04-12T08:48:07.686Z,10.1
2023-04-12T08:50:14.429Z,9.8
2023-04-12T09:00:33.771Z,9.5
2023-04-12T09:08:52.125Z,10.3
2023-04-12T09:10:56.025Z,10.5
2023-04-12T09:12:59.877Z,11.4
2023-04-12T09:15:03.816Z,11.9
2023-04-12T09:17:07.799Z,12.7
2023-04-12T09:21:18.324Z,13.4
2023-04-12T09:23:22.193Z,13.6
2023-04-12T09:27:30.025Z,13.2
2023-04-12T09:31:37.924Z,13.5
2023-04-12T09:33:44.603Z,13.2
2023-04-12T09:35:48.542Z,13.1
2023-04-12T09:41:00.615Z,12.4
2023-04-12T09:47:15.201Z,12.3
2023-04-12T09:49:19.091Z,12.2
2023-04-12T09:51:23.072Z,12.6
2023-04-12T09:53:27.091Z,12.7
2023-04-12T09:55:30.919Z,12.8
2023-04-12T09:57:34.819Z,12.9
2023-04-12T10:01:45.623Z,13
2023-04-12T10:05:53.346Z,12.7
2023-04-12T10:10:01.231Z,13.3
2023-04-12T10:12:05.109Z,13.4
2023-04-12T10:14:09.032Z,13.6
2023-04-12T10:16:15.816Z,13
2023-04-12T10:18:19.703Z,12.9
2023-04-12T10:20:28.926Z,13
2023-04-12T10:22:27.544Z,12.8
2023-04-12T10:24:31.475Z,13
2023-04-12T10:28:39.315Z,12.9
2023-04-12T10:30:47.066Z,13.1
2023-04-12T10:32:50.034Z,13.1
2023-04-12T10:34:53.931Z,13.4
2023-04-12T10:35:57.330Z,13.5
2023-04-12T10:38:01.296Z,13.5
2023-04-12T10:40:05.148Z,13.1
2023-04-12T10:42:09.089Z,13.2
2023-04-12T10:44:15.835Z,12.9
2023-04-12T10:46:19.823Z,13.2
2023-04-12T10:48:23.760Z,13.9
2023-04-12T10:50:27.610Z,13.7
2023-04-12T11:00:50.196Z,13.7
2023-04-12T11:02:54.136Z,13.6
2023-04-12T11:04:57.957Z,13.7
2023-04-12T11:09:05.799Z,13.2
2023-04-12T11:11:09.723Z,13.1
2023-04-12T11:13:16.451Z,13.3
2023-04-12T11:15:20.401Z,13.1
2023-04-12T11:17:24.716Z,13.5
2023-04-12T11:19:28.226Z,13.6
2023-04-12T11:21:32.192Z,13.9
2023-04-12T11:23:36.098Z,14.2
2023-04-12T11:29:50.694Z,13.9
2023-04-12T11:31:54.684Z,14
2023-04-12T11:36:28.151Z,13.4
2023-04-12T11:38:32.113Z,13.3
2023-04-12T11:40:39.244Z,13.1
2023-04-12T11:42:42.762Z,13
2023-04-12T11:46:50.625Z,13.4
2023-04-12T11:48:54.694Z,13.3
2023-04-12T11:51:10.176Z,13.6
2023-04-12T11:55:09.130Z,13.8
2023-04-12T11:57:13.041Z,14
2023-04-12T12:05:29.096Z,13.1
2023-04-12T12:07:32.908Z,12.7
2023-04-12T12:13:47.306Z,11.3
2023-04-12T12:19:59.082Z,10.1
2023-04-12T12:22:02.959Z,11
2023-04-12T12:26:19.027Z,11.4
2023-04-12T12:28:17.559Z,11.4
2023-04-12T12:29:22.391Z,11.3
2023-04-12T12:31:26.403Z,11.1
2023-04-12T12:33:45.163Z,11.3
2023-04-12T12:35:34.089Z,12.4
2023-04-12T12:37:40.820Z,13.6
2023-04-12T12:39:44.699Z,13.8
2023-04-12T12:41:48.638Z,13.5
2023-04-12T12:43:52.562Z,14.1
2023-04-12T12:45:56.436Z,15.8
2023-04-12T12:48:00.475Z,16
2023-04-12T12:52:11.037Z,13.7
2023-04-12T12:54:21.973Z,13.7
2023-04-12T12:56:18.855Z,13.5
2023-04-12T13:00:26.700Z,13.3
2023-04-12T13:02:30.740Z,13.5
2023-04-12T13:04:34.730Z,13.7
2023-04-12T13:06:41.276Z,15.6
2023-04-12T13:08:45.192Z,16.5
2023-04-12T13:10:49.118Z,18.7
2023-04-12T13:12:53.047Z,17.7
2023-04-12T13:15:06.860Z,17.1
2023-04-12T13:17:00.878Z,16.1
2023-04-12T13:19:04.811Z,16.1
2023-04-12T13:21:11.559Z,17
2023-04-12T13:23:15.479Z,17.8
2023-04-12T13:25:19.426Z,18
2023-04-12T13:30:30.660Z,15
2023-04-12T13:32:34.624Z,14.7
2023-04-12T13:34:41.320Z,15.1
2023-04-12T13:42:57.951Z,14.2
2023-04-12T13:45:01.972Z,13.5
2023-04-12T13:49:12.543Z,13.5
2023-04-12T13:51:17.300Z,13.5
2023-04-12T13:53:20.399Z,13.3
2023-04-12T13:55:24.328Z,13.3
2023-04-12T13:57:28.270Z,13.6
2023-04-12T14:01:36.192Z,13.4
2023-04-12T14:05:46.781Z,14.6
2023-04-12T14:07:50.713Z,14.1
2023-04-12T14:09:54.653Z,13.7
2023-04-12T14:11:58.565Z,13.5
2023-04-12T14:14:02.487Z,13.5
2023-04-12T14:16:06.414Z,13.4
2023-04-12T14:18:13.174Z,13
2023-04-12T14:20:19.310Z,12.9
2023-04-12T14:22:21.048Z,12.8
2023-04-12T14:23:24.369Z,12.8
2023-04-12T14:27:32.209Z,12.6
2023-04-12T14:29:36.155Z,12.4
2023-04-12T14:31:42.970Z,12.2
2023-04-12T14:33:47.373Z,12.2
2023-04-12T14:35:50.746Z,12.1
2023-04-12T14:37:54.690Z,11.9
2023-04-12T14:39:58.649Z,11.8
2023-04-12T14:42:02.552Z,11.6
2023-04-12T14:46:13.280Z,11.6
2023-04-12T14:48:17.111Z,11.6
2023-04-12T14:50:21.045Z,11.6
2023-04-12T14:52:24.924Z,11.5
2023-04-12T14:54:28.871Z,11.4
2023-04-12T14:56:36.538Z,11.4
2023-04-12T14:58:36.694Z,11.3
2023-04-12T15:00:43.422Z,11.2
2023-04-12T15:02:47.716Z,11.1
2023-04-12T15:04:51.401Z,11.1
2023-04-12T15:06:55.149Z,11.1
2023-04-12T15:13:06.865Z,11
2023-04-12T15:15:13.586Z,10.9
2023-04-12T15:17:17.500Z,10.9
2023-04-12T15:19:22.901Z,10.9
2023-04-12T15:21:51.164Z,11
2023-04-12T15:23:54.988Z,10.9
2023-04-12T15:25:58.862Z,10.9
2023-04-12T15:28:05.562Z,10.9
2023-04-12T15:30:09.529Z,10.9
2023-04-12T15:32:13.448Z,10.9
2023-04-12T15:36:21.143Z,10.8
2023-04-12T15:38:25.043Z,10.7
2023-04-12T15:40:28.952Z,10.8
2023-04-12T15:42:35.652Z,10.8
2023-04-12T15:48:47.343Z,10.7
2023-04-12T15:50:51.237Z,10.7
2023-04-12T15:52:55.215Z,10.7
2023-04-12T15:54:59.066Z,10.7
2023-04-12T15:59:09.674Z,10.7
2023-04-12T16:01:13.596Z,10.7
2023-04-12T16:03:17.682Z,10.7
2023-04-12T16:05:21.364Z,10.6
2023-04-12T16:07:25.247Z,10.6
2023-04-12T16:13:39.774Z,10.3
2023-04-12T16:16:46.975Z,10.1
2023-04-12T16:20:54.705Z,9.4
2023-04-12T16:25:05.300Z,9.5
2023-04-12T16:27:09.243Z,9.6
2023-04-12T16:29:13.071Z,9.5
2023-04-12T16:31:17.096Z,9.5
2023-04-12T16:37:28.636Z,9.4
2023-04-12T17:00:16.977Z,10.3
2023-04-12T17:02:21.046Z,10.3
2023-04-12T17:04:24.769Z,10.3
2023-04-12T17:06:28.606Z,10.2
2023-04-12T17:08:35.276Z,10.1
2023-04-12T17:13:46.409Z,10.9
2023-04-12T17:15:50.404Z,11.2
2023-04-12T17:17:54.267Z,11.5
2023-04-12T17:19:58.073Z,11.6
2023-04-12T17:22:04.765Z,11.4
2023-04-12T17:24:08.674Z,10.8
2023-04-12T17:26:12.552Z,9.9
2023-04-12T17:28:16.454Z,9.5
2023-04-12T17:30:20.331Z,9.4
2023-04-12T17:32:24.296Z,9.2
2023-04-12T17:34:28.111Z,9.2
2023-04-12T17:36:34.785Z,9.1
2023-04-12T17:38:38.673Z,9.1
2023-04-12T17:40:42.551Z,9
2023-04-12T17:44:50.305Z,9
2023-04-12T17:46:54.192Z,9
2023-04-12T17:48:58.309Z,9
2023-04-12T17:51:04.732Z,9
2023-04-12T18:03:28.116Z,8.8
2023-04-12T18:05:34.619Z,8.8
2023-04-12T18:10:45.679Z,8.7
2023-04-12T18:12:49.575Z,8.7
2023-04-12T18:14:53.405Z,8.7
2023-04-12T18:16:57.300Z,8.6
2023-04-12T18:21:07.847Z,8.4
2023-04-12T18:23:11.691Z,8.3
2023-04-12T18:25:15.739Z,8.2
2023-04-12T18:27:20.866Z,8.1
2023-04-12T18:29:24.700Z,8
2023-04-12T18:31:28.589Z,7.9
2023-04-12T18:35:39.110Z,7.8
2023-04-12T18:37:42.918Z,7.7
2023-04-12T18:39:46.748Z,7.7
2023-04-12T18:41:50.617Z,7.6
2023-04-12T18:43:54.432Z,7.6
2023-04-12T18:45:58.282Z,7.5
2023-04-12T18:48:05.005Z,7.4
2023-04-12T18:50:10.829Z,7.4
2023-04-12T18:52:12.624Z,7.4
2023-04-12T18:54:16.472Z,7.3
2023-04-12T18:56:21.815Z,7.3
2023-04-12T18:58:26.953Z,7.3
2023-04-12T19:00:28.327Z,7.2
2023-04-12T19:02:34.810Z,7.2
2023-04-12T19:04:38.425Z,7.1
2023-04-12T19:06:42.270Z,7.1
2023-04-12T19:11:15.732Z,7
2023-04-12T19:17:30.039Z,6.9
2023-04-12T19:21:37.685Z,6.8
2023-04-12T19:23:41.492Z,6.8
2023-04-12T19:25:45.345Z,6.8
2023-04-12T19:27:49.192Z,6.7
2023-04-12T19:29:56.049Z,6.7
2023-04-12T19:31:59.977Z,6.7
2023-04-12T19:34:03.706Z,6.6
2023-04-12T19:36:07.534Z,6.6
2023-04-12T19:38:11.361Z,6.5
2023-04-12T19:40:15.183Z,6.5
2023-04-12T19:42:18.996Z,6.5
2023-04-12T19:44:25.636Z,6.5
2023-04-12T19:46:29.425Z,6.4
2023-04-12T19:48:33.247Z,6.4
2023-04-12T19:50:37.060Z,6.4
2023-04-12T19:52:40.876Z,6.3
2023-04-12T19:54:44.693Z,6.3
2023-04-12T20:00:58.975Z,6.3
2023-04-12T20:03:02.922Z,6.3
2023-04-12T20:04:06.220Z,6.2
2023-04-12T20:08:13.903Z,6.2
2023-04-12T20:10:17.702Z,6.2
2023-04-12T20:12:24.346Z,6.1
2023-04-12T20:14:28.123Z,6.1
2023-04-12T20:16:31.963Z,6.1
2023-04-12T20:28:57.829Z,6
2023-04-12T20:43:27.018Z,5.9
2023-04-12T20:45:30.770Z,5.9
2023-04-12T20:47:34.623Z,5.9
2023-04-12T20:49:38.401Z,5.9
2023-04-12T20:51:42.172Z,5.9
2023-04-12T20:53:46.005Z,6
2023-04-12T20:55:52.587Z,5.9
2023-04-12T20:57:56.393Z,5.9
2023-04-12T21:00:00.188Z,5.9
2023-04-12T21:01:03.486Z,5.9
2023-04-12T21:03:07.464Z,5.8
2023-04-12T21:05:11.094Z,5.9
2023-04-12T21:07:14.894Z,5.9
2023-04-12T21:11:25.416Z,5.8
2023-04-12T21:13:29.190Z,5.9
2023-04-12T21:15:33.086Z,5.8
2023-04-12T21:17:36.928Z,5.9
2023-04-12T21:21:44.447Z,5.9
2023-04-12T21:23:51.078Z,5.9
2023-04-12T21:25:54.865Z,5.9
2023-04-12T21:27:58.634Z,5.9
2023-04-12T21:30:02.500Z,5.9
2023-04-12T21:32:06.323Z,5.8
2023-04-12T21:34:10.004Z,5.9
2023-04-12T21:38:20.391Z,5.8
2023-04-12T21:40:25.634Z,5.8
2023-04-12T21:42:27.958Z,5.8
2023-04-12T21:50:43.631Z,5.8
2023-04-12T21:52:49.678Z,5.9
2023-04-12T21:58:00.638Z,5.9
2023-04-12T22:00:04.429Z,5.8
2023-04-12T22:02:08.293Z,5.8
2023-04-12T22:04:12.022Z,5.8
2023-04-12T22:06:18.564Z,5.9
2023-04-12T22:08:22.369Z,6
2023-04-12T22:10:26.128Z,6.1
2023-04-12T22:12:30.048Z,6.1
2023-04-12T22:14:33.797Z,6.2
2023-04-12T22:20:48.213Z,6.5
2023-04-12T22:26:59.343Z,6.6
2023-04-12T22:31:06.955Z,6.7
2023-04-12T22:33:10.805Z,6.8
2023-04-12T22:35:17.374Z,6.8
2023-04-12T22:43:32.705Z,6.9
2023-04-12T22:45:36.491Z,6.9
2023-04-12T22:47:40.420Z,7
2023-04-12T22:49:47.046Z,7
2023-04-12T22:51:50.843Z,7
2023-04-12T22:53:54.701Z,7.2
2023-04-12T22:56:18.403Z,7.2
2023-04-12T22:58:22.220Z,7.1
2023-04-12T23:00:26.041Z,7.1
2023-04-12T23:02:32.812Z,7
2023-04-12T23:04:36.525Z,6.9
2023-04-12T23:08:44.131Z,6.6
2023-04-12T23:10:47.970Z,6.5
2023-04-12T23:12:51.887Z,6.3
2023-04-12T23:14:55.824Z,6.2
2023-04-12T23:21:09.914Z,6.1
2023-04-12T23:23:13.710Z,6
2023-04-12T23:25:17.510Z,6
2023-04-12T23:29:25.104Z,6
2023-04-12T23:37:43.102Z,6
2023-04-12T23:39:46.923Z,6
2023-04-12T23:41:50.748Z,6
2023-04-12T23:46:01.136Z,6
2023-04-12T23:48:04.970Z,6
2023-04-12T23:50:08.845Z,6
2023-04-12T23:51:12.136Z,6
2023-04-12T23:55:19.722Z,5.9
2023-04-12T23:57:23.498Z,6
2023-04-12T23:59:30.090Z,6
